createdAt,value
2023-04-03T00:02:23.975Z,50.73
2023-04-03T00:04:50.555Z,50.34
2023-04-03T00:07:17.024Z,49.75
2023-04-03T00:09:43.447Z,49.42
2023-04-03T00:12:09.932Z,49.69
2023-04-03T00:14:36.396Z,49.96
2023-04-03T00:17:02.981Z,49.70
2023-04-03T00:19:29.504Z,50.42
2023-04-03T00:21:56.691Z,50.06
2023-04-03T00:24:23.202Z,49.63
2023-04-03T00:26:49.655Z,50.05
2023-04-03T00:29:16.540Z,50.25
2023-04-03T00:31:43.059Z,50.58
2023-04-03T00:34:09.598Z,50.46
2023-04-03T00:36:36.365Z,50.30
2023-04-03T00:39:02.847Z,49.58
2023-04-03T00:41:29.348Z,50.03
2023-04-03T00:43:56.198Z,50.33
2023-04-03T00:46:22.660Z,49.44
2023-04-03T00:48:49.888Z,49.92
2023-04-03T00:51:21.966Z,49.92
2023-04-03T00:53:51.755Z,50.59
2023-04-03T00:56:20.677Z,50.76
2023-04-03T00:58:50.297Z,51.00
2023-04-03T01:01:19.634Z,50.88
2023-04-03T01:03:46.613Z,51.06
2023-04-03T01:06:17.231Z,50.52
2023-04-03T01:08:47.784Z,51.07
2023-04-03T01:11:14.293Z,51.56
2023-04-03T01:13:41.725Z,51.05
2023-04-03T01:16:08.712Z,51.44
2023-04-03T01:18:37.029Z,51.65
2023-04-03T01:21:12.916Z,51.40
2023-04-03T01:23:53.523Z,51.77
2023-04-03T01:26:20.014Z,51.39
2023-04-03T01:28:46.688Z,51.97
2023-04-03T01:31:21.464Z,51.54
2023-04-03T01:33:48.827Z,52.41
2023-04-03T01:36:17.326Z,52.20
2023-04-03T01:38:43.875Z,51.84
2023-04-03T01:41:10.597Z,52.40
2023-04-03T01:43:37.690Z,52.84
2023-04-03T01:46:04.485Z,52.26
2023-04-03T01:48:30.982Z,53.50
2023-04-03T01:50:57.499Z,53.14
2023-04-03T01:53:24.086Z,52.81
2023-04-03T01:55:50.820Z,52.85
2023-04-03T01:58:17.646Z,52.50
2023-04-03T02:00:44.396Z,53.14
2023-04-03T02:03:11.385Z,53.82
2023-04-03T02:05:38.599Z,53.37
2023-04-03T02:08:05.804Z,52.69
2023-04-03T02:10:32.380Z,52.57
2023-04-03T02:12:58.964Z,53.33
2023-04-03T02:15:25.781Z,53.57
2023-04-03T02:17:53.077Z,53.04
2023-04-03T02:20:20.685Z,52.85
2023-04-03T02:22:47.189Z,53.30
2023-04-03T02:25:13.857Z,52.21
2023-04-03T02:27:41.226Z,52.78
2023-04-03T02:30:07.911Z,52.39
2023-04-03T02:32:34.434Z,52.09
2023-04-03T02:35:02.781Z,52.65
2023-04-03T02:37:29.358Z,52.49
2023-04-03T02:39:56.254Z,52.29
2023-04-03T02:42:22.715Z,52.41
2023-04-03T02:44:49.220Z,52.01
2023-04-03T02:47:15.987Z,52.61
2023-04-03T02:49:44.611Z,52.29
2023-04-03T02:52:11.223Z,53.20
2023-04-03T02:54:38.492Z,52.24
2023-04-03T02:57:09.874Z,52.16
2023-04-03T02:59:37.112Z,52.48
2023-04-03T03:02:04.029Z,52.17
2023-04-03T03:04:30.581Z,51.58
2023-04-03T03:06:57.196Z,51.97
2023-04-03T03:09:23.730Z,51.86
2023-04-03T03:11:50.488Z,52.05
2023-04-03T03:14:16.983Z,51.69
2023-04-03T03:16:43.556Z,51.53
2023-04-03T03:19:10.170Z,51.52
2023-04-03T03:21:36.877Z,52.24
2023-04-03T03:24:03.857Z,51.96
2023-04-03T03:26:30.336Z,52.13
2023-04-03T03:28:56.900Z,51.96
2023-04-03T03:31:23.495Z,52.04
2023-04-03T03:33:50.102Z,52.12
2023-04-03T03:36:16.907Z,52.43
2023-04-03T03:38:43.486Z,52.93
2023-04-03T03:41:10.532Z,52.93
2023-04-03T03:43:37.413Z,52.78
2023-04-03T03:46:06.055Z,52.59
2023-04-03T03:48:32.652Z,52.22
2023-04-03T03:50:59.155Z,51.92
2023-04-03T03:53:30.378Z,51.44
2023-04-03T03:56:01.117Z,51.74
2023-04-03T03:58:29.889Z,51.29
2023-04-03T04:00:56.476Z,51.47
2023-04-03T04:03:23.203Z,51.04
2023-04-03T04:05:51.704Z,50.60
2023-04-03T04:08:18.360Z,50.60
2023-04-03T04:10:46.032Z,50.93
2023-04-03T04:13:14.881Z,50.26
2023-04-03T04:15:41.762Z,50.37
2023-04-03T04:18:08.655Z,50.19
2023-04-03T04:20:35.229Z,49.65
2023-04-03T04:23:02.186Z,49.72
2023-04-03T04:25:30.002Z,48.94
2023-04-03T04:27:56.557Z,49.20
2023-04-03T04:30:23.062Z,49.50
2023-04-03T04:32:50.776Z,49.48
2023-04-03T04:35:17.927Z,49.78
2023-04-03T04:37:47.222Z,49.55
2023-04-03T04:40:14.054Z,51.45
2023-04-03T04:42:41.085Z,50.14
2023-04-03T04:45:08.515Z,50.72
2023-04-03T04:47:36.496Z,50.67
2023-04-03T04:50:03.260Z,49.74
2023-04-03T04:52:31.690Z,50.17
2023-04-03T04:54:58.250Z,50.59
2023-04-03T04:57:25.247Z,49.98
2023-04-03T04:59:51.967Z,49.69
2023-04-03T05:02:18.695Z,49.91
2023-04-03T05:04:45.930Z,49.91
2023-04-03T05:07:18.870Z,50.07
2023-04-03T05:09:45.463Z,49.56
2023-04-03T05:12:13.924Z,49.68
2023-04-03T05:14:47.073Z,49.58
2023-04-03T05:17:13.928Z,50.03
2023-04-03T05:19:44.478Z,49.79
2023-04-03T05:22:12.232Z,49.75
2023-04-03T05:24:38.779Z,49.66
2023-04-03T05:27:06.162Z,48.75
2023-04-03T05:29:36.383Z,48.50
2023-04-03T05:32:04.311Z,48.88
2023-04-03T05:34:30.908Z,49.78
2023-04-03T05:36:57.657Z,49.15
2023-04-03T05:39:26.465Z,49.80
2023-04-03T05:41:53.020Z,48.66
2023-04-03T05:44:19.535Z,47.90
2023-04-03T05:46:47.585Z,48.24
2023-04-03T05:49:14.520Z,48.32
2023-04-03T05:51:41.324Z,47.62
2023-04-03T05:54:19.127Z,47.23
2023-04-03T05:56:46.252Z,48.42
2023-04-03T05:59:13.107Z,47.78
2023-04-03T06:01:40.160Z,47.95
2023-04-03T06:04:10.003Z,47.69
2023-04-03T06:06:48.400Z,47.70
2023-04-03T06:09:16.350Z,47.97
2023-04-03T06:11:44.098Z,47.36
2023-04-03T06:14:10.715Z,47.90
2023-04-03T06:16:39.618Z,47.51
2023-04-03T06:19:10.758Z,46.58
2023-04-03T06:21:40.569Z,46.99
2023-04-03T06:24:08.313Z,47.76
2023-04-03T06:26:35.347Z,47.48
2023-04-03T06:29:02.674Z,48.41
2023-04-03T06:31:29.229Z,47.38
2023-04-03T06:33:56.254Z,46.82
2023-04-03T06:36:22.932Z,46.17
2023-04-03T06:38:49.863Z,46.58
2023-04-03T06:41:17.385Z,46.81
2023-04-03T06:43:47.129Z,46.06
2023-04-03T06:46:17.564Z,46.16
2023-04-03T06:48:44.705Z,44.79
2023-04-03T06:51:22.252Z,42.94
2023-04-03T06:53:51.580Z,41.84
2023-04-03T06:56:18.434Z,41.29
2023-04-03T06:58:45.936Z,40.93
2023-04-03T07:01:13.388Z,41.25
2023-04-03T07:03:40.023Z,42.94
2023-04-03T07:06:07.943Z,43.14
2023-04-03T07:08:35.046Z,44.11
2023-04-03T07:11:01.525Z,44.69
2023-04-03T07:13:27.966Z,44.66
2023-04-03T07:15:54.585Z,44.29
2023-04-03T07:18:22.274Z,44.76
2023-04-03T07:20:49.000Z,45.85
2023-04-03T07:23:15.983Z,45.28
2023-04-03T07:25:47.205Z,45.03
2023-04-03T07:28:14.204Z,45.25
2023-04-03T07:30:54.005Z,45.47
2023-04-03T07:33:22.210Z,47.04
2023-04-03T07:35:48.832Z,46.51
2023-04-03T07:38:15.343Z,46.93
2023-04-03T07:40:46.432Z,47.17
2023-04-03T07:43:13.032Z,46.37
2023-04-03T07:45:39.797Z,46.70
2023-04-03T07:48:06.645Z,46.90
2023-04-03T07:50:33.417Z,45.00
2023-04-03T07:53:00.111Z,43.75
2023-04-03T07:55:26.796Z,43.42
2023-04-03T07:57:53.266Z,44.53
2023-04-03T08:00:20.691Z,43.78
2023-04-03T08:02:52.564Z,44.17
2023-04-03T08:05:20.088Z,44.11
2023-04-03T08:07:47.516Z,43.37
2023-04-03T08:10:15.159Z,43.50
2023-04-03T08:12:41.780Z,42.88
2023-04-03T08:15:09.251Z,42.83
2023-04-03T08:17:35.784Z,42.60
2023-04-03T08:20:02.741Z,42.07
2023-04-03T08:22:29.211Z,42.81
2023-04-03T08:24:59.381Z,42.36
2023-04-03T08:27:28.269Z,42.92
2023-04-03T08:29:55.482Z,43.05
2023-04-03T08:32:21.976Z,42.08
2023-04-03T08:34:48.582Z,41.36
2023-04-03T08:37:17.005Z,42.03
2023-04-03T08:39:44.311Z,41.34
2023-04-03T08:42:34.132Z,40.41
2023-04-03T08:45:01.198Z,40.58
2023-04-03T08:47:38.913Z,41.10
2023-04-03T08:50:10.918Z,39.55
2023-04-03T08:52:40.558Z,39.60
2023-04-03T08:55:25.545Z,39.82
2023-04-03T08:57:55.383Z,39.38
2023-04-03T09:00:24.139Z,40.62
2023-04-03T09:02:52.094Z,39.44
2023-04-03T09:05:31.135Z,39.64
2023-04-03T09:08:01.698Z,39.25
2023-04-03T09:10:29.882Z,38.14
2023-04-03T09:13:02.375Z,37.85
2023-04-03T09:15:38.259Z,36.75
2023-04-03T09:18:21.760Z,36.30
2023-04-03T09:20:57.802Z,37.18
2023-04-03T09:23:37.628Z,36.62
2023-04-03T09:26:07.463Z,37.50
2023-04-03T09:28:42.911Z,35.86
2023-04-03T09:31:19.704Z,35.53
2023-04-03T09:33:47.443Z,35.85
2023-04-03T09:36:14.389Z,35.08
2023-04-03T09:38:40.832Z,35.53
2023-04-03T09:41:08.576Z,35.38
2023-04-03T09:43:39.609Z,34.53
2023-04-03T09:46:21.052Z,33.46
2023-04-03T09:49:07.306Z,33.14
2023-04-03T09:51:35.238Z,33.89
2023-04-03T09:54:22.115Z,33.58
2023-04-03T09:56:52.578Z,33.84
2023-04-03T09:59:19.262Z,33.85
2023-04-03T10:01:58.586Z,33.53
2023-04-03T10:04:25.428Z,33.35
2023-04-03T10:06:53.647Z,33.83
2023-04-03T10:09:22.221Z,33.01
2023-04-03T10:12:02.236Z,33.65
2023-04-03T10:14:29.750Z,33.65
2023-04-03T10:17:00.660Z,32.47
2023-04-03T10:19:57.285Z,34.33
2023-04-03T10:22:42.805Z,33.34
2023-04-03T10:25:31.797Z,33.05
2023-04-03T10:28:13.592Z,33.79
2023-04-03T10:30:58.948Z,33.36
2023-04-03T10:33:25.632Z,32.65
2023-04-03T10:36:12.873Z,33.44
2023-04-03T10:38:42.504Z,34.51
2023-04-03T10:41:18.359Z,34.06
2023-04-03T10:44:01.032Z,33.82
2023-04-03T10:46:36.657Z,32.80
2023-04-03T10:49:26.650Z,32.99
2023-04-03T10:52:00.553Z,33.97
2023-04-03T10:54:47.249Z,32.98
2023-04-03T10:57:14.292Z,33.84
2023-04-03T10:59:58.963Z,34.57
2023-04-03T11:02:30.823Z,32.91
2023-04-03T11:05:03.537Z,33.39
2023-04-03T11:07:39.540Z,32.61
2023-04-03T11:10:15.465Z,32.25
2023-04-03T11:12:48.110Z,30.79
2023-04-03T11:15:17.515Z,29.24
2023-04-03T11:17:55.794Z,26.95
2023-04-03T11:20:35.567Z,27.28
2023-04-03T11:23:04.942Z,25.92
2023-04-03T11:25:34.167Z,26.48
2023-04-03T11:28:04.798Z,26.31
2023-04-03T11:30:40.117Z,28.54
2023-04-03T11:33:21.789Z,28.51
2023-04-03T11:35:49.648Z,27.87
2023-04-03T11:38:27.539Z,30.77
2023-04-03T11:40:56.225Z,30.33
2023-04-03T11:43:31.390Z,27.42
2023-04-03T11:46:05.127Z,29.58
2023-04-03T11:48:34.639Z,27.54
2023-04-03T11:51:01.935Z,28.92
2023-04-03T11:53:28.777Z,27.54
2023-04-03T11:55:56.631Z,27.83
2023-04-03T11:58:24.589Z,27.15
2023-04-03T12:00:56.184Z,26.17
2023-04-03T12:03:25.869Z,27.27
2023-04-03T12:05:55.657Z,27.96
2023-04-03T12:08:30.366Z,29.13
2023-04-03T12:11:15.571Z,29.43
2023-04-03T12:13:57.470Z,29.51
2023-04-03T12:16:39.305Z,28.97
2023-04-03T12:19:15.202Z,28.59
2023-04-03T12:21:44.784Z,27.57
2023-04-03T12:24:11.676Z,26.89
2023-04-03T12:26:48.209Z,24.92
2023-04-03T12:29:24.638Z,25.89
2023-04-03T12:32:11.531Z,26.70
2023-04-03T12:34:57.402Z,26.91
2023-04-03T12:37:42.688Z,25.64
2023-04-03T12:40:09.199Z,26.88
2023-04-03T12:43:04.318Z,27.33
2023-04-03T12:45:41.046Z,24.57
2023-04-03T12:48:13.306Z,25.48
2023-04-03T12:50:41.803Z,27.44
2023-04-03T12:53:13.587Z,28.58
2023-04-03T12:55:40.504Z,26.54
2023-04-03T12:58:18.230Z,26.07
2023-04-03T13:00:44.812Z,27.98
2023-04-03T13:03:22.626Z,28.02
2023-04-03T13:05:49.499Z,28.21
2023-04-03T13:08:23.459Z,26.08
2023-04-03T13:10:55.837Z,26.75
2023-04-03T13:13:24.057Z,26.09
2023-04-03T13:15:51.500Z,27.76
2023-04-03T13:18:34.697Z,26.22
2023-04-03T13:21:05.933Z,26.94
2023-04-03T13:23:33.832Z,27.22
2023-04-03T13:26:04.482Z,26.31
2023-04-03T13:28:32.217Z,27.75
2023-04-03T13:31:02.820Z,28.28
2023-04-03T13:33:32.703Z,28.75
2023-04-03T13:36:02.948Z,27.55
2023-04-03T13:38:33.870Z,29.68
2023-04-03T13:41:03.531Z,29.96
2023-04-03T13:43:37.225Z,30.54
2023-04-03T13:46:24.042Z,28.85
2023-04-03T13:48:52.468Z,29.08
2023-04-03T13:51:21.985Z,29.60
2023-04-03T13:53:50.388Z,30.60
2023-04-03T13:56:21.608Z,30.18
2023-04-03T13:59:14.533Z,30.55
2023-04-03T14:01:44.069Z,29.08
2023-04-03T14:04:12.958Z,28.48
2023-04-03T14:06:39.554Z,28.70
2023-04-03T14:09:06.381Z,27.73
2023-04-03T14:11:32.855Z,28.33
2023-04-03T14:14:02.869Z,26.27
2023-04-03T14:16:31.864Z,26.28
2023-04-03T14:18:58.354Z,28.14
2023-04-03T14:21:24.857Z,26.11
2023-04-03T14:23:52.258Z,25.99
2023-04-03T14:26:21.381Z,26.92
2023-04-03T14:28:49.815Z,28.18
2023-04-03T14:31:17.023Z,26.72
2023-04-03T14:33:43.572Z,28.00
2023-04-03T14:36:12.987Z,28.67
2023-04-03T14:38:39.542Z,27.15
2023-04-03T14:41:15.622Z,27.16
2023-04-03T14:43:43.354Z,27.19
2023-04-03T14:46:13.639Z,29.45
2023-04-03T14:48:40.471Z,28.61
2023-04-03T14:51:07.000Z,27.51
2023-04-03T14:53:38.832Z,27.17
2023-04-03T14:56:11.891Z,27.67
2023-04-03T14:58:38.694Z,29.15
2023-04-03T15:01:05.313Z,27.92
2023-04-03T15:03:31.985Z,26.29
2023-04-03T15:05:59.700Z,26.73
2023-04-03T15:08:30.160Z,26.44
2023-04-03T15:10:57.200Z,28.40
2023-04-03T15:13:24.876Z,27.93
2023-04-03T15:15:52.033Z,26.59
2023-04-03T15:18:28.442Z,26.23
2023-04-03T15:20:56.253Z,27.79
2023-04-03T15:23:26.831Z,26.12
2023-04-03T15:25:54.391Z,26.65
2023-04-03T15:28:24.398Z,27.45
2023-04-03T15:30:51.093Z,27.57
2023-04-03T15:33:17.745Z,27.44
2023-04-03T15:35:44.377Z,27.80
2023-04-03T15:38:11.426Z,27.81
2023-04-03T15:40:38.180Z,28.08
2023-04-03T15:43:05.504Z,28.53
2023-04-03T15:45:32.840Z,27.99
2023-04-03T15:47:59.585Z,29.16
2023-04-03T15:50:26.431Z,29.15
2023-04-03T15:52:55.411Z,28.79
2023-04-03T15:55:23.401Z,29.84
2023-04-03T15:57:50.266Z,30.51
2023-04-03T16:00:17.327Z,30.40
2023-04-03T16:02:47.806Z,30.56
2023-04-03T16:05:16.333Z,30.55
2023-04-03T16:07:42.792Z,29.97
2023-04-03T16:10:09.824Z,30.74
2023-04-03T16:12:36.819Z,29.88
2023-04-03T16:15:04.212Z,30.70
2023-04-03T16:17:32.261Z,31.39
2023-04-03T16:19:59.743Z,31.44
2023-04-03T16:22:27.121Z,31.80
2023-04-03T16:24:54.081Z,31.77
2023-04-03T16:27:20.900Z,31.74
2023-04-03T16:29:47.363Z,32.31
2023-04-03T16:32:14.518Z,32.43
2023-04-03T16:34:41.997Z,33.20
2023-04-03T16:37:09.486Z,33.31
2023-04-03T16:39:36.452Z,33.46
2023-04-03T16:42:03.571Z,34.07
2023-04-03T16:44:30.254Z,33.93
2023-04-03T16:46:57.876Z,33.80
2023-04-03T16:49:24.470Z,35.11
2023-04-03T16:51:51.049Z,34.84
2023-04-03T16:54:17.528Z,34.77
2023-04-03T16:56:44.045Z,35.02
2023-04-03T16:59:10.671Z,35.62
2023-04-03T17:01:37.228Z,35.25
2023-04-03T17:04:03.797Z,35.45
2023-04-03T17:06:30.395Z,35.31
2023-04-03T17:08:56.837Z,35.40
2023-04-03T17:11:27.057Z,35.44
2023-04-03T17:13:53.531Z,35.73
2023-04-03T17:16:20.118Z,35.67
2023-04-03T17:18:47.909Z,35.28
2023-04-03T17:21:15.053Z,34.84
2023-04-03T17:23:43.589Z,35.68
2023-04-03T17:26:10.087Z,35.02
2023-04-03T17:28:36.878Z,35.08
2023-04-03T17:31:03.838Z,34.86
2023-04-03T17:33:33.282Z,34.36
2023-04-03T17:36:01.504Z,34.70
2023-04-03T17:38:28.354Z,35.58
2023-04-03T17:40:58.679Z,35.46
2023-04-03T17:43:25.993Z,35.27
2023-04-03T17:45:52.906Z,36.01
2023-04-03T17:48:19.501Z,35.90
2023-04-03T17:50:46.262Z,35.40
2023-04-03T17:53:13.064Z,36.37
2023-04-03T17:55:40.124Z,36.04
2023-04-03T17:58:06.789Z,36.44
2023-04-03T18:00:33.263Z,36.61
2023-04-03T18:02:59.763Z,36.84
2023-04-03T18:05:29.574Z,36.35
2023-04-03T18:07:58.044Z,36.20
2023-04-03T18:10:25.004Z,35.71
2023-04-03T18:12:53.096Z,36.18
2023-04-03T18:15:19.784Z,36.08
2023-04-03T18:17:47.188Z,36.46
2023-04-03T18:20:15.163Z,36.57
2023-04-03T18:22:41.836Z,36.48
2023-04-03T18:25:11.254Z,36.25
2023-04-03T18:27:37.817Z,36.57
2023-04-03T18:30:09.075Z,36.57
2023-04-03T18:32:36.069Z,36.59
2023-04-03T18:35:02.961Z,36.53
2023-04-03T18:37:30.063Z,36.30
2023-04-03T18:39:56.727Z,36.06
2023-04-03T18:42:24.864Z,35.45
2023-04-03T18:44:53.509Z,36.02
2023-04-03T18:47:19.991Z,36.33
2023-04-03T18:49:46.669Z,35.87
2023-04-03T18:52:13.179Z,36.02
2023-04-03T18:54:40.911Z,36.11
2023-04-03T18:57:07.366Z,36.32
2023-04-03T18:59:34.089Z,36.23
2023-04-03T19:02:00.873Z,35.89
2023-04-03T19:04:28.660Z,35.80
2023-04-03T19:06:55.222Z,36.08
2023-04-03T19:09:21.983Z,36.06
2023-04-03T19:11:48.427Z,36.18
2023-04-03T19:14:17.005Z,36.30
2023-04-03T19:16:44.629Z,36.15
2023-04-03T19:19:11.564Z,35.56
2023-04-03T19:21:41.128Z,36.01
2023-04-03T19:24:08.922Z,36.00
2023-04-03T19:26:35.442Z,36.05
2023-04-03T19:29:01.974Z,36.44
2023-04-03T19:34:00.389Z,36.77
2023-04-03T19:36:27.010Z,35.88
2023-04-03T19:38:53.911Z,36.73
2023-04-03T19:41:25.117Z,37.22
2023-04-03T19:43:52.600Z,37.87
2023-04-03T19:46:19.271Z,37.63
2023-04-03T19:48:47.355Z,37.81
2023-04-03T19:51:13.996Z,38.15
2023-04-03T19:53:40.500Z,38.00
2023-04-03T19:56:07.068Z,37.72
2023-04-03T19:58:34.144Z,37.84
2023-04-03T20:01:00.858Z,37.27
2023-04-03T20:03:27.372Z,36.92
2023-04-03T20:05:54.403Z,37.85
2023-04-03T20:08:20.980Z,37.60
2023-04-03T20:10:47.640Z,38.04
2023-04-03T20:13:14.481Z,37.34
2023-04-03T20:15:41.992Z,37.90
2023-04-03T20:18:09.853Z,37.97
2023-04-03T20:20:42.045Z,36.53
2023-04-03T20:23:11.428Z,37.04
2023-04-03T20:25:50.601Z,36.68
2023-04-03T20:28:21.399Z,36.76
2023-04-03T20:30:50.721Z,37.08
2023-04-03T20:33:18.842Z,37.09
2023-04-03T20:35:46.938Z,37.29
2023-04-03T20:38:13.571Z,36.37
2023-04-03T20:40:40.226Z,36.44
2023-04-03T20:43:07.256Z,36.49
2023-04-03T20:45:34.763Z,36.43
2023-04-03T20:48:03.517Z,36.69
2023-04-03T20:50:30.822Z,36.55
2023-04-03T20:53:00.513Z,36.59
2023-04-03T20:55:27.136Z,36.63
2023-04-03T20:57:58.296Z,36.65
2023-04-03T21:00:25.227Z,36.23
2023-04-03T21:02:51.840Z,36.14
2023-04-03T21:05:18.587Z,35.63
2023-04-03T21:08:04.422Z,36.06
2023-04-03T21:10:49.548Z,36.41
2023-04-03T21:13:34.942Z,35.69
2023-04-03T21:16:02.294Z,36.08
2023-04-03T21:18:34.368Z,36.65
2023-04-03T21:21:01.586Z,35.89
2023-04-03T21:23:29.115Z,36.24
2023-04-03T21:25:55.914Z,36.59
2023-04-03T21:28:24.638Z,36.58
2023-04-03T21:30:51.166Z,36.88
2023-04-03T21:33:17.714Z,37.01
2023-04-03T21:35:44.195Z,36.95
2023-04-03T21:38:11.266Z,36.68
2023-04-03T21:40:37.751Z,36.77
2023-04-03T21:43:05.552Z,37.19
2023-04-03T21:45:32.032Z,37.02
2023-04-03T21:47:59.211Z,36.96
2023-04-03T21:50:25.767Z,37.25
2023-04-03T21:52:56.453Z,37.31
2023-04-03T21:55:23.468Z,37.92
2023-04-03T21:57:53.685Z,37.59
2023-04-03T22:00:20.883Z,37.53
2023-04-03T22:02:48.306Z,37.67
2023-04-03T22:05:14.872Z,37.96
2023-04-03T22:07:43.884Z,38.60
2023-04-03T22:10:10.385Z,38.33
2023-04-03T22:12:37.446Z,38.35
2023-04-03T22:15:04.186Z,38.32
2023-04-03T22:17:31.478Z,38.82
2023-04-03T22:19:57.975Z,39.08
2023-04-03T22:22:24.885Z,39.32
2023-04-03T22:24:52.283Z,39.29
2023-04-03T22:27:18.826Z,39.30
2023-04-03T22:29:45.456Z,39.33
2023-04-03T22:32:11.898Z,39.43
2023-04-03T22:34:39.620Z,39.28
2023-04-03T22:37:06.484Z,39.42
2023-04-03T22:39:33.309Z,40.19
2023-04-03T22:42:01.596Z,40.70
2023-04-03T22:44:35.015Z,40.56
2023-04-03T22:47:02.921Z,40.42
2023-04-03T22:49:29.406Z,39.91
2023-04-03T22:51:55.878Z,40.19
2023-04-03T22:54:22.437Z,40.22
2023-04-03T22:56:49.544Z,39.90
2023-04-03T22:59:16.270Z,40.55
2023-04-03T23:01:42.874Z,39.55
2023-04-03T23:04:09.435Z,39.43
2023-04-03T23:06:36.014Z,39.49
2023-04-03T23:09:02.611Z,39.37
2023-04-03T23:11:29.116Z,38.65
2023-04-03T23:13:55.610Z,38.23
2023-04-03T23:16:22.163Z,38.80
2023-04-03T23:18:50.022Z,38.29
2023-04-03T23:21:16.611Z,38.31
2023-04-03T23:23:43.061Z,38.09
2023-04-03T23:26:09.670Z,38.18
2023-04-03T23:28:36.791Z,38.97
2023-04-03T23:31:06.577Z,38.17
2023-04-03T23:33:33.443Z,39.05
2023-04-03T23:36:01.213Z,38.96
2023-04-03T23:38:27.866Z,38.57
2023-04-03T23:40:54.344Z,39.06
2023-04-03T23:43:21.115Z,38.93
2023-04-03T23:45:47.807Z,38.67
2023-04-03T23:48:14.369Z,38.79
2023-04-03T23:50:42.554Z,38.85
2023-04-03T23:53:09.431Z,39.21
2023-04-03T23:55:35.900Z,38.83
2023-04-03T23:58:02.685Z,38.38
